createdAt,value
2018-09-11T00:00:34.677Z,3.30
2018-09-11T00:03:39.644Z,3.33
2018-09-11T00:06:44.589Z,3.60
2018-09-11T00:09:49.594Z,3.70
2018-09-11T00:12:54.561Z,3.37
2018-09-11T00:15:59.533Z,3.40
2018-09-11T00:19:04.557Z,3.50
2018-09-11T00:22:09.504Z,3.30
2018-09-11T00:25:14.448Z,3.23
2018-09-11T00:28:19.398Z,3.07
2018-09-11T00:31:24.333Z,3.47
2018-09-11T00:34:29.244Z,3.47
2018-09-11T00:37:34.195Z,3.37
2018-09-11T00:40:39.141Z,3.27
2018-09-11T00:43:44.049Z,3.10
2018-09-11T00:46:48.984Z,3.60
2018-09-11T00:49:53.925Z,2.93
2018-09-11T00:52:59.073Z,3.70
2018-09-11T00:56:04.041Z,3.07
2018-09-11T00:59:08.968Z,3.93
2018-09-11T01:02:13.882Z,3.70
2018-09-11T01:05:18.794Z,3.20
2018-09-11T01:08:23.709Z,3.00
2018-09-11T01:11:28.621Z,3.43
2018-09-11T01:14:33.580Z,3.50
2018-09-11T01:17:38.548Z,3.00
2018-09-11T01:20:43.517Z,3.57
2018-09-11T01:23:48.442Z,3.73
2018-09-11T01:26:53.356Z,3.30
2018-09-11T01:29:58.283Z,3.20
2018-09-11T01:33:03.250Z,3.33
2018-09-11T01:36:08.236Z,2.77
2018-09-11T01:39:13.613Z,2.93
2018-09-11T01:42:18.526Z,3.20
2018-09-11T01:45:23.497Z,3.20
2018-09-11T01:48:28.439Z,3.30
2018-09-11T01:51:33.448Z,3.00
2018-09-11T01:54:38.418Z,3.30
2018-09-11T01:57:43.370Z,3.10
2018-09-11T02:00:48.324Z,3.07
2018-09-11T02:03:53.275Z,3.30
2018-09-11T02:06:58.320Z,3.37
2018-09-11T02:10:03.265Z,3.37
2018-09-11T02:13:08.260Z,2.93
2018-09-11T02:16:13.281Z,3.27
2018-09-11T02:19:18.209Z,3.33
2018-09-11T02:22:23.202Z,2.93
2018-09-11T02:25:28.152Z,3.00
2018-09-11T02:28:33.126Z,3.33
2018-09-11T02:31:38.054Z,3.10
2018-09-11T02:34:43.012Z,3.33
2018-09-11T02:37:48.192Z,3.40
2018-09-11T02:40:53.112Z,3.77
2018-09-11T02:43:58.106Z,3.97
2018-09-11T02:47:03.058Z,3.07
2018-09-11T02:50:08.373Z,3.07
2018-09-11T02:53:13.341Z,3.30
2018-09-11T02:56:18.264Z,3.03
2018-09-11T02:59:23.194Z,3.47
2018-09-11T03:02:28.121Z,3.47
2018-09-11T03:05:33.120Z,3.30
2018-09-11T03:08:38.077Z,3.33
2018-09-11T03:11:43.033Z,2.80
2018-09-11T03:14:47.968Z,3.33
2018-09-11T03:17:52.902Z,3.40
2018-09-11T03:20:57.861Z,3.37
2018-09-11T03:24:02.802Z,3.30
2018-09-11T03:27:07.778Z,3.40
2018-09-11T03:30:12.745Z,3.20
2018-09-11T03:33:17.702Z,3.50
2018-09-11T03:36:22.665Z,3.57
2018-09-11T03:39:27.637Z,3.53
2018-09-11T03:42:32.594Z,3.17
2018-09-11T03:45:41.396Z,3.40
2018-09-11T03:48:46.407Z,3.47
2018-09-11T03:51:51.332Z,3.20
2018-09-11T03:54:56.289Z,3.43
2018-09-11T03:58:01.423Z,3.57
2018-09-11T04:01:06.401Z,3.33
2018-09-11T04:04:11.343Z,3.40
2018-09-11T04:07:16.301Z,3.93
2018-09-11T04:10:21.241Z,3.73
2018-09-11T04:13:26.205Z,3.90
2018-09-11T04:16:31.154Z,3.73
2018-09-11T04:19:36.097Z,3.73
2018-09-11T04:22:41.070Z,3.07
2018-09-11T04:25:46.090Z,3.07
2018-09-11T04:28:51.023Z,3.40
2018-09-11T04:31:55.993Z,3.43
2018-09-11T04:35:00.924Z,3.40
2018-09-11T04:38:05.961Z,3.63
2018-09-11T04:41:11.017Z,3.40
2018-09-11T04:44:15.938Z,3.30
2018-09-11T04:47:20.910Z,3.07
2018-09-11T04:50:25.844Z,3.30
2018-09-11T04:53:30.802Z,3.07
2018-09-11T04:56:35.769Z,3.53
2018-09-11T04:59:40.719Z,3.80
2018-09-11T05:02:45.660Z,3.03
2018-09-11T05:05:50.582Z,3.40
2018-09-11T05:08:55.534Z,2.93
2018-09-11T05:12:00.512Z,3.17
2018-09-11T05:15:05.488Z,3.47
2018-09-11T05:18:10.482Z,3.40
2018-09-11T05:21:15.421Z,3.30
2018-09-11T05:24:20.375Z,3.33
2018-09-11T05:27:25.386Z,4.03
2018-09-11T05:30:30.299Z,3.30
2018-09-11T05:33:35.265Z,3.20
2018-09-11T05:36:40.196Z,3.50
2018-09-11T05:39:45.149Z,3.60
2018-09-11T05:42:50.085Z,3.77
2018-09-11T05:45:55.055Z,4.37
2018-09-11T05:49:00.010Z,3.63
2018-09-11T05:52:05.101Z,3.57
2018-09-11T05:55:10.067Z,4.00
2018-09-11T05:58:15.031Z,3.70
2018-09-11T06:01:20.031Z,3.97
2018-09-11T06:04:24.937Z,3.87
2018-09-11T06:07:29.952Z,3.60
2018-09-11T06:10:34.893Z,3.40
2018-09-11T06:13:39.806Z,3.90
2018-09-11T06:16:44.738Z,4.07
2018-09-11T06:19:49.659Z,3.70
2018-09-11T06:22:56.062Z,4.00
2018-09-11T06:26:01.029Z,3.77
2018-09-11T06:29:06.008Z,3.70
2018-09-11T06:32:10.894Z,4.70
2018-09-11T06:35:15.805Z,3.50
2018-09-11T06:38:20.723Z,4.13
2018-09-11T06:41:25.692Z,4.37
2018-09-11T06:44:30.618Z,4.53
2018-09-11T06:47:35.545Z,5.63
2018-09-11T06:50:40.492Z,5.63
2018-09-11T06:53:45.440Z,5.20
2018-09-11T06:56:50.379Z,8.10
2018-09-11T06:59:55.298Z,6.30
2018-09-11T07:03:00.230Z,6.20
2018-09-11T07:06:05.233Z,5.20
2018-09-11T07:09:10.676Z,5.10
2018-09-11T07:12:16.553Z,4.50
2018-09-11T07:15:21.553Z,5.27
2018-09-11T07:18:26.755Z,4.50
2018-09-11T07:21:31.770Z,4.70
2018-09-11T07:24:37.060Z,4.43
2018-09-11T07:27:42.047Z,3.80
2018-09-11T07:30:47.082Z,3.80
2018-09-11T07:33:52.029Z,4.30
2018-09-11T07:36:57.144Z,3.20
2018-09-11T07:40:02.134Z,2.43
2018-09-11T07:43:07.181Z,2.23
2018-09-11T07:46:12.147Z,2.53
2018-09-11T07:49:17.134Z,2.53
2018-09-11T07:52:22.128Z,2.10
2018-09-11T07:55:27.250Z,2.50
2018-09-11T07:58:32.220Z,2.67
2018-09-11T08:01:37.190Z,2.17
2018-09-11T08:04:42.135Z,2.40
2018-09-11T08:07:47.130Z,2.77
2018-09-11T08:10:52.062Z,2.63
2018-09-11T08:13:57.009Z,2.30
2018-09-11T08:17:02.010Z,2.53
2018-09-11T08:20:06.985Z,2.63
2018-09-11T08:23:12.003Z,2.30
2018-09-11T08:26:16.929Z,2.30
2018-09-11T08:29:21.951Z,2.30
2018-09-11T08:32:26.862Z,2.43
2018-09-11T08:35:31.822Z,2.40
2018-09-11T08:38:36.748Z,2.47
2018-09-11T08:41:41.675Z,2.57
2018-09-11T08:44:46.596Z,2.57
2018-09-11T08:47:52.317Z,3.17
2018-09-11T08:50:57.218Z,2.70
2018-09-11T08:54:02.124Z,2.63
2018-09-11T08:57:07.084Z,2.87
2018-09-11T09:00:12.012Z,2.57
2018-09-11T09:03:16.943Z,2.60
2018-09-11T09:06:21.869Z,2.57
2018-09-11T09:09:26.789Z,2.53
2018-09-11T09:12:31.737Z,2.40
2018-09-11T09:15:36.698Z,2.30
2018-09-11T09:18:41.632Z,2.20
2018-09-11T09:21:46.558Z,2.50
2018-09-11T09:24:51.510Z,1.93
2018-09-11T09:27:56.449Z,2.00
2018-09-11T09:31:01.397Z,2.40
2018-09-11T09:34:06.376Z,2.00
2018-09-11T09:37:11.693Z,2.50
2018-09-11T09:40:16.686Z,2.33
2018-09-11T09:43:21.651Z,2.50
2018-09-11T09:46:26.590Z,2.50
2018-09-11T09:49:31.548Z,2.50
2018-09-11T09:52:36.508Z,2.93
2018-09-11T09:55:41.517Z,2.50
2018-09-11T09:58:46.729Z,2.47
2018-09-11T10:01:57.445Z,2.43
2018-09-11T10:05:02.444Z,2.40
2018-09-11T10:08:07.421Z,2.23
2018-09-11T10:11:12.341Z,2.80
2018-09-11T10:14:17.290Z,2.97
2018-09-11T10:17:22.276Z,2.30
2018-09-11T10:20:27.235Z,2.80
2018-09-11T10:23:32.184Z,2.40
2018-09-11T10:26:37.126Z,2.70
2018-09-11T10:29:42.155Z,2.33
2018-09-11T10:32:47.090Z,2.27
2018-09-11T10:35:52.077Z,2.37
2018-09-11T10:38:57.045Z,2.60
2018-09-11T10:42:02.029Z,2.50
2018-09-11T10:45:07.127Z,2.03
2018-09-11T10:48:11.997Z,2.40
2018-09-11T10:51:16.954Z,2.20
2018-09-11T10:54:21.972Z,2.10
2018-09-11T10:57:26.918Z,2.20
2018-09-11T11:00:31.895Z,2.10
2018-09-11T11:03:36.844Z,2.20
2018-09-11T11:06:41.784Z,2.17
2018-09-11T11:09:46.879Z,2.00
2018-09-11T11:12:51.836Z,2.40
2018-09-11T11:15:56.796Z,2.40
2018-09-11T11:19:01.764Z,2.70
2018-09-11T11:22:06.744Z,2.20
2018-09-11T11:25:11.701Z,2.30
2018-09-11T11:28:16.647Z,2.30
2018-09-11T11:31:21.650Z,2.30
2018-09-11T11:34:26.611Z,2.10
2018-09-11T11:37:31.579Z,2.00
2018-09-11T11:40:36.645Z,2.00
2018-09-11T11:43:41.615Z,2.17
2018-09-11T11:46:46.581Z,2.47
2018-09-11T11:49:52.112Z,2.73
2018-09-11T11:52:57.088Z,2.50
2018-09-11T11:56:02.063Z,2.70
2018-09-11T11:59:07.003Z,2.43
2018-09-11T12:02:11.956Z,2.17
2018-09-11T12:05:16.979Z,2.43
2018-09-11T12:08:21.930Z,2.50
2018-09-11T12:14:28.729Z,2.37
2018-09-11T12:17:34.157Z,2.40
2018-09-11T12:20:39.558Z,2.80
2018-09-11T12:23:44.603Z,2.37
2018-09-11T12:26:50.052Z,2.40
2018-09-11T12:29:54.933Z,2.80
2018-09-11T12:33:00.071Z,2.33
2018-09-11T12:36:05.578Z,2.80
2018-09-11T12:39:11.169Z,2.37
2018-09-11T12:42:16.514Z,2.50
2018-09-11T12:45:21.920Z,2.37
2018-09-11T12:48:27.011Z,2.47
2018-09-11T12:51:31.914Z,2.50
2018-09-11T12:54:36.873Z,2.50
2018-09-11T12:57:42.226Z,2.63
2018-09-11T13:00:47.340Z,2.47
2018-09-11T13:03:52.328Z,2.40
2018-09-11T13:06:57.610Z,2.67
2018-09-11T13:10:02.839Z,2.83
2018-09-11T13:13:07.901Z,2.57
2018-09-11T13:16:13.094Z,2.40
2018-09-11T13:19:18.194Z,2.50
2018-09-11T13:22:23.383Z,2.50
2018-09-11T13:25:28.657Z,2.80
2018-09-11T13:28:33.736Z,2.30
2018-09-11T13:31:38.717Z,2.90
2018-09-11T13:34:43.695Z,2.93
2018-09-11T13:37:49.589Z,2.43
2018-09-11T13:40:54.581Z,3.10
2018-09-11T13:43:59.627Z,2.90
2018-09-11T13:47:05.122Z,2.63
2018-09-11T13:50:10.010Z,2.87
2018-09-11T13:53:15.478Z,3.03
2018-09-11T13:56:20.853Z,3.20
2018-09-11T13:59:25.989Z,3.10
2018-09-11T14:02:31.404Z,2.80
2018-09-11T14:05:36.375Z,2.50
2018-09-11T14:08:41.608Z,2.90
2018-09-11T14:11:46.489Z,2.63
2018-09-11T14:14:51.415Z,2.57
2018-09-11T14:17:56.371Z,2.60
2018-09-11T14:21:01.311Z,2.60
2018-09-11T14:24:06.270Z,2.60
2018-09-11T14:27:11.232Z,3.00
2018-09-11T14:30:16.208Z,2.90
2018-09-11T14:33:21.206Z,2.50
2018-09-11T14:36:26.156Z,2.90
2018-09-11T14:39:31.108Z,2.20
2018-09-11T14:42:36.089Z,2.50
2018-09-11T14:45:41.112Z,2.23
2018-09-11T14:48:46.081Z,2.33
2018-09-11T14:51:51.091Z,2.30
2018-09-11T14:54:56.052Z,2.50
2018-09-11T14:58:01.025Z,2.20
2018-09-11T15:01:06.266Z,2.47
2018-09-11T15:04:11.263Z,2.60
2018-09-11T15:07:16.237Z,2.20
2018-09-11T15:10:21.230Z,2.57
2018-09-11T15:13:26.205Z,2.30
2018-09-11T15:16:31.185Z,3.03
2018-09-11T15:19:36.206Z,2.60
2018-09-11T15:22:41.242Z,2.27
2018-09-11T15:25:46.142Z,2.93
2018-09-11T15:28:51.099Z,2.50
2018-09-11T15:31:56.066Z,2.70
2018-09-11T15:35:01.032Z,2.77
2018-09-11T15:38:06.038Z,2.40
2018-09-11T15:41:12.232Z,2.53
2018-09-11T15:44:17.233Z,2.67
2018-09-11T15:47:22.694Z,2.60
2018-09-11T15:50:27.833Z,2.50
2018-09-11T15:53:32.869Z,2.13
2018-09-11T15:56:38.139Z,2.70
2018-09-11T15:59:43.900Z,2.60
2018-09-11T16:02:49.139Z,2.70
2018-09-11T16:05:54.635Z,2.60
2018-09-11T16:08:59.597Z,2.50
2018-09-11T16:12:04.824Z,2.40
2018-09-11T16:15:09.915Z,2.57
2018-09-11T16:18:15.105Z,2.40
2018-09-11T16:21:20.041Z,2.60
2018-09-11T16:24:25.059Z,3.03
2018-09-11T16:27:30.168Z,2.60
2018-09-11T16:30:35.383Z,2.90
2018-09-11T16:33:40.381Z,2.40
2018-09-11T16:36:45.889Z,2.73
2018-09-11T16:39:51.157Z,2.63
2018-09-11T16:42:56.588Z,2.73
2018-09-11T16:46:01.623Z,2.70
2018-09-11T16:49:07.403Z,2.60
2018-09-11T16:52:12.365Z,3.00
2018-09-11T16:55:17.411Z,2.20
2018-09-11T16:58:22.430Z,2.53
2018-09-11T17:01:27.441Z,2.63
2018-09-11T17:04:33.871Z,2.70
2018-09-11T17:07:38.930Z,2.90
2018-09-11T17:10:44.249Z,2.60
2018-09-11T17:13:49.442Z,2.80
2018-09-11T17:16:54.929Z,3.03
2018-09-11T17:20:00.206Z,2.80
2018-09-11T17:23:05.200Z,2.97
2018-09-11T17:26:10.376Z,3.33
2018-09-11T17:29:15.556Z,2.67
2018-09-11T17:32:20.523Z,2.83
2018-09-11T17:35:25.519Z,2.40
2018-09-11T17:38:30.517Z,2.47
2018-09-11T17:41:35.850Z,2.50
2018-09-11T17:44:41.070Z,2.17
2018-09-11T17:47:46.229Z,2.63
2018-09-11T17:50:51.653Z,2.30
2018-09-11T17:53:56.865Z,2.60
2018-09-11T17:57:01.862Z,2.63
2018-09-11T18:00:07.686Z,2.10
2018-09-11T18:03:12.721Z,2.67
2018-09-11T18:06:17.663Z,3.13
2018-09-11T18:09:22.914Z,3.13
2018-09-11T18:12:28.314Z,2.87
2018-09-11T18:15:33.467Z,2.90
2018-09-11T18:18:38.409Z,2.87
2018-09-11T18:21:43.377Z,2.73
2018-09-11T18:24:48.710Z,3.03
2018-09-11T18:27:54.049Z,2.90
2018-09-11T18:30:58.994Z,2.90
2018-09-11T18:34:03.941Z,2.77
2018-09-11T18:37:08.948Z,3.93
2018-09-11T18:40:14.118Z,3.83
2018-09-11T18:43:19.434Z,3.17
2018-09-11T18:46:24.415Z,3.73
2018-09-11T18:49:29.350Z,3.20
2018-09-11T18:52:34.562Z,4.23
2018-09-11T18:55:39.753Z,3.20
2018-09-11T18:58:44.702Z,3.30
2018-09-11T19:01:49.713Z,3.87
2018-09-11T19:04:55.040Z,3.70
2018-09-11T19:08:00.553Z,4.03
2018-09-11T19:11:05.620Z,3.77
2018-09-11T19:14:10.676Z,4.23
2018-09-11T19:17:15.611Z,4.53
2018-09-11T19:20:20.632Z,3.87
2018-09-11T19:23:25.485Z,4.60
2018-09-11T19:26:30.420Z,3.70
2018-09-11T19:29:35.353Z,4.87
2018-09-11T19:32:40.809Z,4.77
2018-09-11T19:35:45.754Z,4.83
2018-09-11T19:38:50.690Z,3.80
2018-09-11T19:41:55.638Z,3.97
2018-09-11T19:45:00.582Z,3.83
2018-09-11T19:48:05.541Z,3.63
2018-09-11T19:51:10.517Z,3.97
2018-09-11T19:54:15.437Z,3.67
2018-09-11T19:57:20.438Z,4.07
2018-09-11T20:00:25.370Z,4.40
2018-09-11T20:03:30.309Z,3.60
2018-09-11T20:06:35.277Z,5.23
2018-09-11T20:09:40.188Z,4.63
2018-09-11T20:12:45.131Z,4.33
2018-09-11T20:15:50.069Z,4.50
2018-09-11T20:18:55.023Z,3.60
2018-09-11T20:21:59.977Z,3.97
2018-09-11T20:25:05.006Z,4.00
2018-09-11T20:28:09.967Z,4.23
2018-09-11T20:31:14.902Z,3.63
2018-09-11T20:34:19.829Z,4.07
2018-09-11T20:37:24.810Z,3.87
2018-09-11T20:40:29.737Z,4.03
2018-09-11T20:43:34.669Z,3.77
2018-09-11T20:46:39.766Z,3.50
2018-09-11T20:49:44.684Z,3.90
2018-09-11T20:52:49.632Z,3.20
2018-09-11T20:55:54.627Z,3.77
2018-09-11T20:58:59.618Z,3.90
2018-09-11T21:02:04.617Z,3.60
2018-09-11T21:05:09.525Z,3.63
2018-09-11T21:08:14.459Z,3.47
2018-09-11T21:11:19.379Z,3.47
2018-09-11T21:14:24.302Z,3.20
2018-09-11T21:17:29.280Z,4.33
2018-09-11T21:20:34.201Z,3.70
2018-09-11T21:23:39.183Z,3.43
2018-09-11T21:26:44.105Z,3.37
2018-09-11T21:29:48.998Z,3.03
2018-09-11T21:32:53.919Z,3.50
2018-09-11T21:35:58.841Z,3.60
2018-09-11T21:39:06.200Z,3.53
2018-09-11T21:42:11.152Z,3.57
2018-09-11T21:45:16.107Z,2.93
2018-09-11T21:48:21.041Z,3.30
2018-09-11T21:51:25.973Z,3.20
2018-09-11T21:54:30.910Z,3.40
2018-09-11T21:57:35.868Z,3.10
2018-09-11T22:04:18.180Z,3.43
2018-09-11T22:07:23.118Z,3.27
2018-09-11T22:10:28.081Z,3.50
2018-09-11T22:13:33.063Z,3.63
2018-09-11T22:16:38.621Z,2.90
2018-09-11T22:19:43.569Z,3.30
2018-09-11T22:22:48.508Z,3.30
2018-09-11T22:25:53.457Z,3.47
2018-09-11T22:28:58.580Z,3.07
2018-09-11T22:32:03.547Z,3.10
2018-09-11T22:35:08.486Z,2.90
2018-09-11T22:38:13.442Z,2.97
2018-09-11T22:41:18.428Z,2.97
2018-09-11T22:44:23.402Z,2.90
2018-09-11T22:47:28.315Z,3.30
2018-09-11T22:50:33.298Z,3.37
2018-09-11T22:53:38.245Z,3.30
2018-09-11T22:56:43.160Z,3.30
2018-09-11T22:59:48.097Z,3.30
2018-09-11T23:02:53.022Z,3.53
2018-09-11T23:05:57.954Z,3.13
2018-09-11T23:09:04.306Z,3.27
2018-09-11T23:12:09.301Z,3.20
2018-09-11T23:15:14.353Z,3.30
2018-09-11T23:18:19.282Z,2.90
2018-09-11T23:21:24.170Z,3.13
2018-09-11T23:24:29.081Z,3.27
2018-09-11T23:27:34.173Z,3.03
2018-09-11T23:30:39.133Z,2.87
2018-09-11T23:33:44.083Z,2.93
2018-09-11T23:36:49.037Z,2.93
2018-09-11T23:39:53.951Z,3.30
2018-09-11T23:42:58.871Z,3.00
2018-09-11T23:46:03.823Z,3.60
2018-09-11T23:49:08.770Z,3.40
2018-09-11T23:52:13.706Z,3.30
2018-09-11T23:55:18.653Z,3.07
2018-09-11T23:58:23.660Z,3.23
